Home > Products > Valid Products > TAF

000
FTUS41 KPBZ 301138
TAFPIT
TAF
KPIT 301138Z 3012/3118 17004KT P6SM BKN150
      TEMPO 3012/3013 5SM BR
     FM301500 27005KT P6SM SCT040=



000
FTUS41 KPBZ 301138
TAFZZV
TAF
KZZV 301138Z 3012/3112 00000KT P6SM BKN150
     FM301400 30005KT P6SM SCT050=



000
FTUS41 KPBZ 301138
TAFBVI
TAF
KBVI 301138Z 3012/3112 17004KT P6SM BKN150
      TEMPO 3012/3013 5SM BR
     FM301500 27005KT P6SM SCT040
      AMD NOT SKED=



000
FTUS41 KPBZ 301138
TAFMGW
TAF
KMGW 301138Z 3012/3112 14003KT P6SM BKN100
     FM301600 27003KT P6SM VCSH SCT050=



000
FTUS41 KPBZ 301138
TAFHLG
TAF
KHLG 301138Z 3012/3112 22004KT 1SM BR SCT002
      TEMPO 3012/3013 1/4SM FG VV002
     FM301300 VRB03KT 3SM BR SCT150
     FM301400 27005KT P6SM SCT040
     FM310800 VRB03KT 4SM BR SKC=



000
FTUS41 KPBZ 301138
TAFLBE
TAF
KLBE 301138Z 3012/3112 18003KT 3SM BR SCT100
     FM301300 24005KT P6SM SCT050
     FM301800 29005KT P6SM VCSH BKN050=



000
FTUS41 KPBZ 301138
TAFDUJ
TAF
KDUJ 301138Z 3012/3112 00000KT 6SM BR SCT090
      TEMPO 3012/3013 3SM BR
     FM301300 27006KT P6SM SCT060
     FM310800 VRB03KT 4SM BR SKC=



000
FTUS41 KPBZ 301138
TAFAGC
TAF
KAGC 301138Z 3012/3112 17006KT P6SM BKN150
      TEMPO 3012/3013 5SM BR
     FM301500 27005KT P6SM SCT040
     FM310800 VRB03KT 4SM BR SKC=



000
FTUS41 KPBZ 301057 AAE
TAFHLG
TAF AMD
KHLG 301057Z 3011/3106 23004KT 1/4SM FG VV002
     FM301200 23004KT 1SM BR SCT003
     FM301400 24003KT P6SM SCT040=



000
FTUS41 KPBZ 301018 AAC
TAFLBE
TAF AMD
KLBE 301018Z 3010/3106 18003KT 3SM BR SCT100
      TEMPO 3010/3012 1SM BR
     FM301400 24005KT P6SM SCT040=



000
FTUS41 KPBZ 300656 AAA
TAFHLG
TAF AMD
KHLG 300656Z 3007/3106 VRB03KT 1 1/2SM BR SCT003
      TEMPO 3007/3010 1/2SM FG VV003
     FM301400 24003KT P6SM SCT040=



000
FTUS41 KPBZ 292108 AAB
TAFPIT
TAF AMD
KPIT 292108Z 2921/3024 29008KT P6SM VCTS BKN080CB
     FM300100 18004KT P6SM BKN100
     FM301500 28006KT P6SM SCT050=



000
FTUS41 KPBZ 291707 AAA
TAFAGC
TAF AMD
KAGC 291707Z 2917/3012 34010KT 1SM -TSRA OVC040CB
     FM291800 21004KT P6SM VCTS BKN080CB
     FM300200 18004KT P6SM BKN100
     FM300800 21004KT 5SM BR BKN060=



000
FTUS41 KPBZ 291504 AAA
TAFPIT
TAF AMD
KPIT 291504Z 2915/3018 00000KT P6SM BKN250
     FM291700 21004KT P6SM VCTS BKN080CB
     FM300200 18004KT P6SM BKN100
     FM300800 21004KT 5SM BR BKN060=



000
FTUS41 KPBZ 290822 AAA
TAFHLG
TAF AMD
KHLG 290822Z 2908/3006 00000KT 3SM BR BKN250
     FM291200 00000KT 5SM BR SCT150
     FM291500 20003KT P6SM BKN250=



000
FTUS41 KPBZ 290531
TAFPIT
TAF
KPIT 290531Z 2906/3012 00000KT P6SM SCT250
     FM290900 00000KT 5SM BR SCT250
     FM291300 20003KT P6SM BKN250
     FM291600 21004KT P6SM VCTS BKN080CB
     FM300200 18004KT P6SM BKN100
     FM300800 21004KT 5SM BR BKN060=



000
FTUS41 KPBZ 290531
TAFBVI
TAF
KBVI 290531Z 2906/3006 00000KT P6SM SCT250
     FM290900 00000KT 5SM BR SCT200
     FM291300 21003KT P6SM BKN150
      AMD NOT SKED=



000
FTUS41 KPBZ 290531
TAFAGC
TAF
KAGC 290531Z 2906/3006 00000KT P6SM SCT250
     FM290900 00000KT 5SM BR SCT250
     FM291300 20003KT P6SM BKN250
     FM291600 21004KT P6SM VCTS BKN080CB
     FM300200 18004KT P6SM BKN100=



000
FTUS41 KPBZ 290531
TAFZZV
TAF
KZZV 290531Z 2906/3006 00000KT P6SM SCT250
     FM290900 00000KT 3SM BR SCT150
     FM291300 00000KT P6SM BKN150=



000
FTUS41 KPBZ 290531
TAFDUJ
TAF
KDUJ 290531Z 2906/3006 18003KT P6SM BKN060
     FM291000 00000KT 5SM BR SCT200
     FM291300 20003KT P6SM BKN250
     FM291700 22004KT P6SM VCTS BKN050CB=



000
FTUS41 KPBZ 290531
TAFHLG
TAF
KHLG 290531Z 2906/3006 00000KT P6SM SCT250
     FM290900 00000KT 5SM BR SCT150
     FM291300 20003KT P6SM BKN250=



000
FTUS41 KPBZ 290531
TAFLBE
TAF
KLBE 290531Z 2906/3006 18003KT 5SM BR BKN250
     FM290800 00000KT 3SM BR BKN040
     FM291300 20003KT P6SM BKN200
     FM291600 21004KT P6SM VCTS BKN060CB
     FM300200 18004KT P6SM BKN100=



000
FTUS41 KPBZ 290531
TAFMGW
TAF
KMGW 290531Z 2906/3006 00000KT P6SM BKN060
     FM291500 21004KT P6SM BKN150
     FM291800 15004KT P6SM VCTS BKN060CB
     FM300200 00000KT P6SM BKN050=



000
FTUS41 KPBZ 290300 AAA
TAFPIT
TAF AMD
KPIT 290300Z 2903/3006 22003KT P6SM SCT070
     FM291800 21004KT P6SM VCTS BKN050CB
     FM300000 18004KT P6SM SCT080=



000
FTUS41 KPBZ 281720
TAFZZV
TAF
KZZV 281720Z 2818/2918 22006KT P6SM SCT100=



000
FTUS41 KPBZ 281720
TAFDUJ
TAF
KDUJ 281720Z 2818/2918 21005KT P6SM SCT150=



000
FTUS41 KPBZ 281720
TAFHLG
TAF
KHLG 281720Z 2818/2918 20008KT P6SM SCT100
     FM290300 19003KT P6SM BKN250=



000
FTUS41 KPBZ 281720
TAFMGW
TAF
KMGW 281720Z 2818/2918 18004KT P6SM SCT100=



000
FTUS41 KPBZ 281720
TAFLBE
TAF
KLBE 281720Z 2818/2918 23005KT P6SM SCT150=



000
FTUS41 KPBZ 281503 AAA
TAFPIT
TAF AMD
KPIT 281503Z 2815/2918 19006KT P6SM SCT100
     FM290600 00000KT P6SM BKN250=



000
FTUS41 KPBZ 281203 AAA
TAFAGC
TAF AMD
KAGC 281203Z 2812/2912 18004KT P6SM SCT250
     FM281900 18006KT P6SM BKN250
     FM290500 20003KT P6SM SCT250=



000
FTUS41 KPBZ 281132
TAFAGC
TAF
KAGC 281132Z 2812/2912 15006KT 5SM BR BKN250
     FM281300 18004KT P6SM SCT250
     FM281900 18006KT P6SM BKN250
     FM290500 20003KT P6SM SCT250=



000
FTUS41 KPBZ 281132
TAFZZV
TAF
KZZV 281132Z 2812/2912 18003KT P6SM SCT250
     FM281800 20006KT P6SM BKN250
     FM290400 00000KT P6SM BKN250=



000
FTUS41 KPBZ 281132
TAFBVI
TAF
KBVI 281132Z 2812/2912 20003KT P6SM SCT250
     FM281800 19006KT P6SM SCT100
     FM290400 00000KT P6SM BKN250=



000
FTUS41 KPBZ 281132
TAFHLG
TAF
KHLG 281132Z 2812/2912 17005KT P6SM SCT250
     FM282000 20005KT P6SM BKN250=



000
FTUS41 KPBZ 281132
TAFPIT
TAF
KPIT 281132Z 2812/2918 00000KT P6SM BKN250
     FM281700 19006KT P6SM SCT100
     FM290600 00000KT P6SM BKN250=



000
FTUS41 KPBZ 281132
TAFDUJ
TAF
KDUJ 281132Z 2812/2912 00000KT P6SM SCT250
     FM281700 21004KT P6SM BKN250
     FM290400 00000KT P6SM BKN150=



000
FTUS41 KPBZ 281132
TAFLBE
TAF
KLBE 281132Z 2812/2912 20003KT P6SM SCT250
     FM281800 19005KT P6SM BKN150
     FM290500 00000KT P6SM SCT250=



000
FTUS41 KPBZ 281132
TAFMGW
TAF
KMGW 281132Z 2812/2912 18004KT P6SM SCT250
     FM290500 00000KT P6SM SCT250=



000
FTUS41 KPBZ 271724
TAFDUJ
TAF
KDUJ 271724Z 2718/2818 22007KT P6SM SCT050
     FM280000 18003KT P6SM SCT050
     FM280900 18003KT 5SM BR SCT015
     FM281300 22005KT P6SM SCT050=



000
FTUS41 KPBZ 271724
TAFLBE
TAF
KLBE 271724Z 2718/2818 24010KT P6SM SCT040
     FM272000 24010KT P6SM VCTS BKN050CB
     FM280100 00000KT P6SM SCT250=



000
FTUS41 KPBZ 271724
TAFMGW
TAF
KMGW 271724Z 2718/2818 18003KT P6SM BKN040
     FM272000 24006KT P6SM VCTS BKN050CB
     FM280100 00000KT P6SM SCT250=



000
FTUS41 KPBZ 271724
TAFAGC
TAF
KAGC 271724Z 2718/2818 22008KT P6SM SCT050
     FM280000 18003KT P6SM SCT050=



000
FTUS41 KPBZ 271724
TAFBVI
TAF
KBVI 271724Z 2718/2818 23008KT P6SM SCT050
     FM280000 18003KT P6SM SCT050=



000
FTUS41 KPBZ 271724
TAFHLG
TAF
KHLG 271724Z 2718/2818 21010KT P6SM SCT050
     FM280000 18003KT P6SM SCT050=



000
FTUS41 KPBZ 271724
TAFPIT
TAF
KPIT 271724Z 2718/2824 23010KT P6SM SCT050
     FM280000 18003KT P6SM SCT050=



000
FTUS41 KPBZ 271724
TAFZZV
TAF
KZZV 271724Z 2718/2818 21008KT P6SM SCT050
     FM280000 18003KT P6SM SCT050=



    US Dept of Commerce
    National Oceanic and Atmospheric Administration
    National Weather Service
    1325 East West Highway
    Silver Spring, MD 20910
    Page Author: NWS Internet Services Team
Disclaimer
Information Quality
Credits
Glossary
Privacy Policy
Freedom of Information Act (FOIA)
About Us
Career Opportunities